Terminal Aerodrome Forecast
Issued by NWS Jackson, MS

Home | Current Version | Previous Version | Text Only | Print | Product List | Glossary On
Versions: 1 2 3 4 5 6 7 8 9 10 11 12 13 14 15 16 17 18
457
FTUS44 KJAN 240520
TAFJAN
TAF
KJAN 240520Z 2406/2506 27003KT 6SM -RA SCT025 BKN050
     FM240900 20003KT P6SM OVC015
     FM241400 24005KT P6SM OVC025
     FM241800 31005KT P6SM -RA VCTS OVC035CB
     FM250000 01004KT P6SM -TSRA OVC050CB
     FM250200 02005KT P6SM OVC100=

USA.gov is the U.S. government's official web portal to all federal, state and local government web resources and services.